Time,TemperatureF,DewpointF,PressureIn,WindDirection,WindDirectionDegrees,WindSpeedMPH,WindSpeedGustMPH,Humidity,HourlyPrecipIn,Conditions,Clouds,dailyrainin,SoftwareType,DateUTC
2013-10-24 00:00:00,50.2,37.2,30.16,West,270,0.0,0.0,61,0.00,,,0.00,meteohub,2013-10-24 07:00:00,
2013-10-24 00:05:00,49.6,37.2,30.16,SW,225,0.0,0.0,62,0.00,,,0.00,meteohub,2013-10-24 07:05:00,
2013-10-24 00:10:00,49.3,36.9,30.17,West,270,0.0,0.0,62,0.00,,,0.00,meteohub,2013-10-24 07:10:00,
2013-10-24 00:15:00,48.7,36.3,30.17,North,0,0.0,0.0,62,0.00,,,0.00,meteohub,2013-10-24 07:15:00,
2013-10-24 00:20:00,48.2,36.1,30.17,South,180,0.0,0.0,63,0.00,,,0.00,meteohub,2013-10-24 07:20:00,
2013-10-24 00:25:00,48.0,37.2,30.17,West,270,0.0,0.0,66,0.00,,,0.00,meteohub,2013-10-24 07:25:00,
2013-10-24 00:30:00,48.2,38.1,30.17,NW,315,0.0,0.0,68,0.00,,,0.00,meteohub,2013-10-24 07:30:00,
2013-10-24 00:35:00,48.4,37.9,30.17,NW,315,0.0,0.0,67,0.00,,,0.00,meteohub,2013-10-24 07:35:00,
2013-10-24 00:40:00,48.4,37.9,30.17,NW,315,0.0,0.0,67,0.00,,,0.00,meteohub,2013-10-24 07:40:00,
2013-10-24 00:45:00,48.2,37.4,30.17,North,0,0.0,0.0,66,0.00,,,0.00,meteohub,2013-10-24 07:45:00,
2013-10-24 00:50:00,48.0,37.2,30.17,NW,315,0.0,0.0,66,0.00,,,0.00,meteohub,2013-10-24 07:50:00,
2013-10-24 00:56:00,48.0,37.2,30.17,NW,315,0.0,0.0,66,0.00,,,0.00,meteohub,2013-10-24 07:56:00,
2013-10-24 01:01:00,47.7,36.9,30.17,NW,315,0.0,0.0,66,0.00,,,0.00,meteohub,2013-10-24 08:01:00,
2013-10-24 01:06:00,47.7,36.9,30.17,NW,315,0.0,0.0,66,0.00,,,0.00,meteohub,2013-10-24 08:06:00,
2013-10-24 01:11:00,48.4,37.6,30.17,NW,315,0.0,0.0,66,0.00,,,0.00,meteohub,2013-10-24 08:11:00,
2013-10-24 01:16:00,48.7,37.6,30.17,West,270,0.0,0.0,65,0.00,,,0.00,meteohub,2013-10-24 08:16:00,
2013-10-24 01:21:00,49.3,37.9,30.17,SW,225,0.0,0.0,65,0.00,,,0.00,meteohub,2013-10-24 08:21:00,
2013-10-24 01:26:00,49.1,37.0,30.17,West,270,0.0,0.0,63,0.00,,,0.00,meteohub,2013-10-24 08:26:00,
2013-10-24 01:31:00,48.6,36.1,30.17,SW,225,0.0,0.0,62,0.00,,,0.00,meteohub,2013-10-24 08:31:00,
2013-10-24 01:36:00,48.2,35.8,30.17,West,270,0.0,0.0,62,0.00,,,0.00,meteohub,2013-10-24 08:36:00,
2013-10-24 01:41:00,47.7,35.2,30.17,North,0,0.0,0.0,62,0.00,,,0.00,meteohub,2013-10-24 08:41:00,
2013-10-24 01:46:00,47.1,34.7,30.17,South,180,0.0,0.0,62,0.00,,,0.00,meteohub,2013-10-24 08:46:00,
2013-10-24 01:51:00,46.9,35.1,30.17,South,180,0.0,0.0,63,0.00,,,0.00,meteohub,2013-10-24 08:51:00,
2013-10-24 01:56:00,46.8,36.0,30.17,South,180,0.0,0.0,66,0.00,,,0.00,meteohub,2013-10-24 08:56:00,
2013-10-24 02:01:00,46.2,36.3,30.17,North,0,0.0,0.0,68,0.00,,,0.00,meteohub,2013-10-24 09:01:00,
2013-10-24 02:06:00,46.0,36.1,30.17,NE,45,0.0,0.0,68,0.00,,,0.00,meteohub,2013-10-24 09:06:00,
2013-10-24 02:11:00,45.9,36.3,30.17,SW,225,0.0,0.0,69,0.00,,,0.00,meteohub,2013-10-24 09:11:00,
2013-10-24 02:16:00,45.5,36.0,30.17,SW,225,0.0,0.0,69,0.00,,,0.00,meteohub,2013-10-24 09:16:00,
2013-10-24 02:21:00,45.5,36.0,30.17,SW,225,0.0,0.0,69,0.00,,,0.00,meteohub,2013-10-24 09:21:00,
2013-10-24 02:26:00,45.7,36.1,30.17,West,270,0.0,0.0,69,0.00,,,0.00,meteohub,2013-10-24 09:26:00,
2013-10-24 02:31:00,45.5,35.6,30.18,West,270,0.0,0.0,68,0.00,,,0.00,meteohub,2013-10-24 09:31:00,
2013-10-24 02:36:00,45.3,35.1,30.17,SW,225,0.0,0.0,67,0.00,,,0.00,meteohub,2013-10-24 09:36:00,
2013-10-24 02:41:00,45.5,34.9,30.17,South,180,0.0,0.0,66,0.00,,,0.00,meteohub,2013-10-24 09:41:00,
2013-10-24 02:46:00,45.5,34.9,30.17,South,180,0.0,0.0,66,0.00,,,0.00,meteohub,2013-10-24 09:46:00,
2013-10-24 02:51:00,45.1,34.9,30.17,NW,315,0.0,0.0,67,0.00,,,0.00,meteohub,2013-10-24 09:51:00,
2013-10-24 02:56:00,44.8,34.9,30.17,NE,45,0.0,0.0,68,0.00,,,0.00,meteohub,2013-10-24 09:56:00,
2013-10-24 03:01:00,44.8,34.9,30.17,East,90,0.0,0.0,68,0.00,,,0.00,meteohub,2013-10-24 10:01:00,
2013-10-24 03:06:00,44.8,34.9,30.17,East,90,0.0,0.0,68,0.00,,,0.00,meteohub,2013-10-24 10:06:00,
2013-10-24 03:11:00,44.2,34.7,30.17,NE,45,0.0,0.0,69,0.00,,,0.00,meteohub,2013-10-24 10:11:00,
2013-10-24 03:16:00,43.7,33.8,30.17,NW,315,0.0,0.0,68,0.00,,,0.00,meteohub,2013-10-24 10:16:00,
2013-10-24 03:21:00,43.2,33.3,30.17,NW,315,0.0,0.0,68,0.00,,,0.00,meteohub,2013-10-24 10:21:00,
2013-10-24 03:27:00,42.8,33.3,30.17,NW,315,0.0,0.0,69,0.00,,,0.00,meteohub,2013-10-24 10:27:00,
2013-10-24 03:32:00,42.6,33.8,30.17,NW,315,0.0,0.0,71,0.00,,,0.00,meteohub,2013-10-24 10:32:00,
2013-10-24 03:37:00,42.3,33.6,30.17,NW,315,0.0,0.0,71,0.00,,,0.00,meteohub,2013-10-24 10:37:00,
2013-10-24 03:42:00,42.1,33.8,30.17,NW,315,0.0,0.0,72,0.00,,,0.00,meteohub,2013-10-24 10:42:00,
2013-10-24 03:47:00,42.1,34.0,30.17,NW,315,0.0,0.0,73,0.00,,,0.00,meteohub,2013-10-24 10:47:00,
2013-10-24 03:52:00,42.1,33.8,30.17,NW,315,0.0,0.0,72,0.00,,,0.00,meteohub,2013-10-24 10:52:00,
2013-10-24 03:57:00,41.9,33.8,30.17,NW,315,0.0,0.0,73,0.00,,,0.00,meteohub,2013-10-24 10:57:00,
2013-10-24 04:02:00,41.7,33.4,30.17,North,0,0.0,0.0,72,0.00,,,0.00,meteohub,2013-10-24 11:02:00,
2013-10-24 04:07:00,41.5,33.3,30.17,NW,315,0.0,0.0,72,0.00,,,0.00,meteohub,2013-10-24 11:07:00,
2013-10-24 04:12:00,41.7,33.4,30.17,NW,315,0.0,0.0,72,0.00,,,0.00,meteohub,2013-10-24 11:12:00,
2013-10-24 04:17:00,41.5,32.9,30.17,NW,315,0.0,0.0,71,0.00,,,0.00,meteohub,2013-10-24 11:17:00,
2013-10-24 04:22:00,41.5,32.9,30.17,West,270,0.0,0.0,71,0.00,,,0.00,meteohub,2013-10-24 11:22:00,
2013-10-24 04:27:00,41.5,32.5,30.17,WSW,248,0.0,0.0,70,0.00,,,0.00,meteohub,2013-10-24 11:27:00,
2013-10-24 04:32:00,42.1,33.1,30.17,West,270,0.0,0.0,70,0.00,,,0.00,meteohub,2013-10-24 11:32:00,
2013-10-24 04:37:00,42.8,32.9,30.17,West,270,0.0,0.0,68,0.00,,,0.00,meteohub,2013-10-24 11:37:00,
2013-10-24 04:42:00,43.3,32.4,30.17,SW,225,0.0,0.0,65,0.00,,,0.00,meteohub,2013-10-24 11:42:00,
2013-10-24 04:47:00,43.3,32.0,30.17,SW,225,0.0,0.0,64,0.00,,,0.00,meteohub,2013-10-24 11:47:00,
2013-10-24 04:52:00,43.2,31.5,30.17,SW,225,0.0,0.0,63,0.00,,,0.00,meteohub,2013-10-24 11:52:00,
2013-10-24 04:57:00,43.2,31.1,30.17,SW,225,0.0,0.0,62,0.00,,,0.00,meteohub,2013-10-24 11:57:00,
2013-10-24 05:02:00,43.0,30.4,30.17,West,270,0.0,0.0,61,0.00,,,0.00,meteohub,2013-10-24 12:02:00,
2013-10-24 05:07:00,42.6,30.6,30.17,West,270,0.0,0.0,62,0.00,,,0.00,meteohub,2013-10-24 12:07:00,
2013-10-24 05:12:00,42.4,30.4,30.17,West,270,0.0,0.0,62,0.00,,,0.00,meteohub,2013-10-24 12:12:00,
2013-10-24 05:17:00,42.4,30.4,30.18,SW,225,0.0,0.0,62,0.00,,,0.00,meteohub,2013-10-24 12:17:00,
2013-10-24 05:22:00,42.1,29.7,30.18,SW,225,0.0,0.0,61,0.00,,,0.00,meteohub,2013-10-24 12:22:00,
2013-10-24 05:27:00,41.7,29.7,30.18,SW,225,0.0,0.0,62,0.00,,,0.00,meteohub,2013-10-24 12:27:00,
2013-10-24 05:32:00,41.4,28.9,30.18,West,270,0.0,0.0,61,0.00,,,0.00,meteohub,2013-10-24 12:32:00,
2013-10-24 05:37:00,41.0,28.9,30.18,SW,225,0.0,0.0,62,0.00,,,0.00,meteohub,2013-10-24 12:37:00,
2013-10-24 05:43:00,40.6,29.8,30.18,SW,225,0.0,0.0,65,0.00,,,0.00,meteohub,2013-10-24 12:43:00,
2013-10-24 05:48:00,40.6,29.8,30.19,West,270,0.0,0.0,65,0.00,,,0.00,meteohub,2013-10-24 12:48:00,
2013-10-24 05:53:00,47.1,37.4,30.18,West,270,0.0,0.0,69,0.00,,,0.00,meteohub,2013-10-24 12:53:00,
2013-10-24 05:58:00,58.6,37.4,30.18,West,270,0.0,0.0,45,0.00,,,0.00,meteohub,2013-10-24 12:58:00,
2013-10-24 06:03:00,63.0,30.2,30.18,SW,225,0.0,0.0,29,0.00,,,0.00,meteohub,2013-10-24 13:03:00,
2013-10-24 06:08:00,63.7,27.1,30.19,SW,225,0.0,0.0,25,0.00,,,0.00,meteohub,2013-10-24 13:08:00,
2013-10-24 06:13:00,64.0,26.6,30.19,West,270,0.0,0.0,24,0.00,,,0.00,meteohub,2013-10-24 13:13:00,
2013-10-24 06:18:00,64.8,27.1,30.19,West,270,0.0,0.0,24,0.00,,,0.00,meteohub,2013-10-24 13:18:00,
2013-10-24 06:23:00,65.3,27.5,30.19,SW,225,0.0,0.0,24,0.00,,,0.00,meteohub,2013-10-24 13:23:00,
2013-10-24 06:28:00,65.5,26.8,30.19,SW,225,0.0,0.0,23,0.00,,,0.00,meteohub,2013-10-24 13:28:00,
2013-10-24 06:33:00,66.0,27.1,30.19,SW,225,0.0,0.0,23,0.00,,,0.00,meteohub,2013-10-24 13:33:00,
2013-10-24 06:38:00,65.7,25.7,30.19,SW,225,0.0,0.0,22,0.00,,,0.00,meteohub,2013-10-24 13:38:00,
2013-10-24 06:43:00,65.7,25.7,30.19,SW,225,0.0,0.0,22,0.00,,,0.00,meteohub,2013-10-24 13:43:00,
2013-10-24 06:48:00,65.8,25.9,30.19,West,270,0.0,0.0,22,0.00,,,0.00,meteohub,2013-10-24 13:48:00,
2013-10-24 06:53:00,66.0,26.1,30.19,West,270,0.0,0.0,22,0.00,,,0.00,meteohub,2013-10-24 13:53:00,
2013-10-24 06:58:00,66.2,25.2,30.19,SE,135,0.0,0.0,21,0.00,,,0.00,meteohub,2013-10-24 13:58:00,
2013-10-24 07:03:00,66.2,25.2,30.19,SE,135,0.0,0.0,21,0.00,,,0.00,meteohub,2013-10-24 14:03:00,
2013-10-24 07:08:00,66.0,26.1,30.19,SW,225,0.0,0.0,22,0.00,,,0.00,meteohub,2013-10-24 14:08:00,
2013-10-24 07:13:00,66.2,25.2,30.20,NE,45,0.0,0.0,21,0.00,,,0.00,meteohub,2013-10-24 14:13:00,
2013-10-24 07:18:00,66.2,25.2,30.20,NW,315,0.0,0.0,21,0.00,,,0.00,meteohub,2013-10-24 14:18:00,
2013-10-24 07:23:00,67.1,25.9,30.20,West,270,0.0,0.0,21,0.00,,,0.00,meteohub,2013-10-24 14:23:00,
2013-10-24 07:28:00,67.5,25.0,30.20,West,270,0.0,0.0,20,0.00,,,0.00,meteohub,2013-10-24 14:28:00,
2013-10-24 07:33:00,67.5,25.0,30.20,West,270,0.0,0.0,20,0.00,,,0.00,meteohub,2013-10-24 14:33:00,
2013-10-24 07:38:00,67.8,24.1,30.20,West,270,0.0,0.0,19,0.00,,,0.00,meteohub,2013-10-24 14:38:00,
2013-10-24 07:43:00,68.2,23.0,30.20,West,270,0.0,0.0,18,0.00,,,0.00,meteohub,2013-10-24 14:43:00,
2013-10-24 07:48:00,68.4,23.2,30.20,SW,225,0.0,0.0,18,0.00,,,0.00,meteohub,2013-10-24 14:48:00,
2013-10-24 07:53:00,68.4,23.2,30.21,WSW,248,0.0,0.0,18,0.00,,,0.00,meteohub,2013-10-24 14:53:00,
2013-10-24 07:58:00,68.0,22.8,30.21,West,270,0.0,0.0,18,0.00,,,0.00,meteohub,2013-10-24 14:58:00,
2013-10-24 08:03:00,68.2,23.0,30.22,SW,225,0.0,0.0,18,0.00,,,0.00,meteohub,2013-10-24 15:03:00,
2013-10-24 08:08:00,68.0,22.8,30.22,West,270,0.0,0.0,18,0.00,,,0.00,meteohub,2013-10-24 15:08:00,
2013-10-24 08:14:00,68.5,23.4,30.22,SW,225,0.0,0.0,18,0.00,,,0.00,meteohub,2013-10-24 15:14:00,
2013-10-24 08:19:00,69.1,22.5,30.22,West,270,0.0,0.0,17,0.00,,,0.00,meteohub,2013-10-24 15:19:00,
2013-10-24 08:24:00,69.3,22.6,30.22,West,270,0.0,0.0,17,0.00,,,0.00,meteohub,2013-10-24 15:24:00,
2013-10-24 08:29:00,69.3,22.6,30.22,WSW,248,0.0,0.0,17,0.00,,,0.00,meteohub,2013-10-24 15:29:00,
2013-10-24 08:34:00,69.4,22.6,30.22,West,270,0.0,0.0,17,0.00,,,0.00,meteohub,2013-10-24 15:34:00,
2013-10-24 08:39:00,70.0,21.7,30.22,SW,225,0.0,0.0,16,0.00,,,0.00,meteohub,2013-10-24 15:39:00,
2013-10-24 08:44:00,70.3,20.5,30.23,West,270,0.0,0.0,15,0.00,,,0.00,meteohub,2013-10-24 15:44:00,
2013-10-24 08:49:00,70.7,20.8,30.22,West,270,0.0,0.0,15,0.00,,,0.00,meteohub,2013-10-24 15:49:00,
2013-10-24 08:54:00,70.9,20.8,30.23,SW,225,0.0,0.0,15,0.00,,,0.00,meteohub,2013-10-24 15:54:00,
2013-10-24 08:59:00,71.2,21.2,30.23,SW,225,0.0,0.0,15,0.00,,,0.00,meteohub,2013-10-24 15:59:00,
2013-10-24 09:04:00,71.2,21.2,30.22,SW,225,0.0,0.0,15,0.00,,,0.00,meteohub,2013-10-24 16:04:00,
2013-10-24 09:09:00,71.4,21.4,30.23,SW,225,0.0,0.0,15,0.00,,,0.00,meteohub,2013-10-24 16:09:00,
2013-10-24 09:14:00,71.8,19.9,30.22,SW,225,0.0,0.0,14,0.00,,,0.00,meteohub,2013-10-24 16:14:00,
2013-10-24 09:19:00,72.3,20.5,30.23,SW,225,0.0,0.0,14,0.00,,,0.00,meteohub,2013-10-24 16:19:00,
2013-10-24 09:24:00,72.5,20.7,30.22,SW,225,0.0,0.0,14,0.00,,,0.00,meteohub,2013-10-24 16:24:00,
2013-10-24 09:29:00,72.9,20.8,30.23,West,270,0.0,0.0,14,0.00,,,0.00,meteohub,2013-10-24 16:29:00,
2013-10-24 09:34:00,73.2,19.4,30.23,SW,225,0.0,0.0,13,0.00,,,0.00,meteohub,2013-10-24 16:34:00,
2013-10-24 09:39:00,73.2,19.4,30.23,SW,225,0.0,0.0,13,0.00,,,0.00,meteohub,2013-10-24 16:39:00,
2013-10-24 09:44:00,73.6,24.6,30.23,West,270,0.0,0.0,16,0.00,,,0.00,meteohub,2013-10-24 16:44:00,
2013-10-24 09:49:00,73.9,25.0,30.23,SW,225,0.0,0.0,16,0.00,,,0.00,meteohub,2013-10-24 16:49:00,
2013-10-24 09:54:00,74.1,25.0,30.23,SW,225,0.0,0.0,16,0.00,,,0.00,meteohub,2013-10-24 16:54:00,
2013-10-24 09:59:00,74.7,23.9,30.22,SW,225,0.0,0.0,15,0.00,,,0.00,meteohub,2013-10-24 16:59:00,
2013-10-24 10:04:00,75.0,24.3,30.22,SW,225,0.0,0.0,15,0.00,,,0.00,meteohub,2013-10-24 17:04:00,
2013-10-24 10:09:00,75.2,22.6,30.22,SW,225,0.0,0.0,14,0.00,,,0.00,meteohub,2013-10-24 17:09:00,
2013-10-24 10:14:00,75.6,23.0,30.23,WSW,248,0.0,0.0,14,0.00,,,0.00,meteohub,2013-10-24 17:14:00,
2013-10-24 10:19:00,75.7,23.2,30.22,SE,135,0.0,0.0,14,0.00,,,0.00,meteohub,2013-10-24 17:19:00,
2013-10-24 10:25:00,76.1,23.4,30.22,South,180,0.0,0.0,14,0.00,,,0.00,meteohub,2013-10-24 17:25:00,
2013-10-24 10:30:00,76.3,23.5,30.22,SW,225,0.0,0.0,14,0.00,,,0.00,meteohub,2013-10-24 17:30:00,
2013-10-24 10:35:00,76.6,23.9,30.22,South,180,0.0,0.0,14,0.00,,,0.00,meteohub,2013-10-24 17:35:00,
2013-10-24 10:40:00,76.8,24.1,30.22,SW,225,0.0,0.0,14,0.00,,,0.00,meteohub,2013-10-24 17:40:00,
2013-10-24 10:45:00,77.0,22.5,30.22,SE,135,0.0,0.0,13,0.00,,,0.00,meteohub,2013-10-24 17:45:00,
2013-10-24 10:50:00,77.4,20.8,30.22,West,270,0.0,0.0,12,0.00,,,0.00,meteohub,2013-10-24 17:50:00,
2013-10-24 10:55:00,77.7,23.0,30.22,ENE,68,0.0,0.0,13,0.00,,,0.00,meteohub,2013-10-24 17:55:00,
2013-10-24 11:00:00,77.9,23.2,30.22,SE,135,0.0,0.0,13,0.00,,,0.00,meteohub,2013-10-24 18:00:00,
2013-10-24 11:05:00,78.3,23.4,30.22,West,270,0.0,0.0,13,0.00,,,0.00,meteohub,2013-10-24 18:05:00,
2013-10-24 11:10:00,78.4,23.5,30.22,SE,135,0.0,0.0,13,0.00,,,0.00,meteohub,2013-10-24 18:10:00,
2013-10-24 11:15:00,78.4,23.5,30.22,East,90,0.0,0.0,13,0.00,,,0.00,meteohub,2013-10-24 18:15:00,
2013-10-24 11:20:00,78.6,23.7,30.22,NW,315,0.0,0.0,13,0.00,,,0.00,meteohub,2013-10-24 18:20:00,
2013-10-24 11:25:00,78.6,23.7,30.22,SW,225,0.0,0.0,13,0.00,,,0.00,meteohub,2013-10-24 18:25:00,
2013-10-24 11:30:00,78.8,21.9,30.22,SW,225,0.0,0.0,12,0.00,,,0.00,meteohub,2013-10-24 18:30:00,
2013-10-24 11:35:00,79.0,22.1,30.22,SE,135,0.0,0.0,12,0.00,,,0.00,meteohub,2013-10-24 18:35:00,
2013-10-24 11:40:00,79.0,22.1,30.21,West,270,0.0,0.0,12,0.00,,,0.00,meteohub,2013-10-24 18:40:00,
2013-10-24 11:45:00,79.2,22.1,30.22,SW,225,0.0,0.0,12,0.00,,,0.00,meteohub,2013-10-24 18:45:00,
2013-10-24 11:50:00,79.3,22.3,30.22,SE,135,0.0,0.0,12,0.00,,,0.00,meteohub,2013-10-24 18:50:00,
2013-10-24 11:55:00,79.3,22.3,30.21,ESE,113,0.0,0.0,12,0.00,,,0.00,meteohub,2013-10-24 18:55:00,
2013-10-24 12:00:00,79.3,22.3,30.21,NW,315,0.0,0.0,12,0.00,,,0.00,meteohub,2013-10-24 19:00:00,
2013-10-24 12:05:00,79.3,22.3,30.21,SE,135,0.0,0.0,12,0.00,,,0.00,meteohub,2013-10-24 19:05:00,
2013-10-24 12:10:00,79.3,22.3,30.21,SW,225,0.0,0.0,12,0.00,,,0.00,meteohub,2013-10-24 19:10:00,
2013-10-24 12:16:00,79.5,24.4,30.21,SW,225,0.0,0.0,13,0.00,,,0.00,meteohub,2013-10-24 19:16:00,
2013-10-24 12:21:00,79.5,24.4,30.21,East,90,0.0,0.0,13,0.00,,,0.00,meteohub,2013-10-24 19:21:00,
2013-10-24 12:26:00,79.7,22.6,30.20,ENE,68,0.0,0.0,12,0.00,,,0.00,meteohub,2013-10-24 19:26:00,
2013-10-24 12:31:00,79.7,22.6,30.20,SE,135,0.0,0.0,12,0.00,,,0.00,meteohub,2013-10-24 19:31:00,
2013-10-24 12:36:00,79.3,22.3,30.20,NE,45,0.0,0.0,12,0.00,,,0.00,meteohub,2013-10-24 19:36:00,
2013-10-24 12:41:00,79.3,22.3,30.20,East,90,0.0,0.0,12,0.00,,,0.00,meteohub,2013-10-24 19:41:00,
2013-10-24 12:46:00,79.2,22.1,30.19,ESE,113,0.0,0.0,12,0.00,,,0.00,meteohub,2013-10-24 19:46:00,
2013-10-24 12:51:00,79.2,22.1,30.19,NE,45,0.0,0.0,12,0.00,,,0.00,meteohub,2013-10-24 19:51:00,
2013-10-24 12:56:00,79.0,22.1,30.19,NE,45,0.0,0.0,12,0.00,,,0.00,meteohub,2013-10-24 19:56:00,
2013-10-24 13:01:00,78.8,21.9,30.19,SE,135,0.0,0.0,12,0.00,,,0.00,meteohub,2013-10-24 20:01:00,
2013-10-24 13:06:00,78.6,23.7,30.19,SE,135,0.0,0.0,13,0.00,,,0.00,meteohub,2013-10-24 20:06:00,
2013-10-24 13:11:00,78.6,25.5,30.19,ESE,113,0.0,0.0,14,0.00,,,0.00,meteohub,2013-10-24 20:11:00,
2013-10-24 13:16:00,78.1,23.2,30.18,NW,315,0.0,0.0,13,0.00,,,0.00,meteohub,2013-10-24 20:16:00,
2013-10-24 13:21:00,78.1,25.0,30.18,SW,225,0.0,0.0,14,0.00,,,0.00,meteohub,2013-10-24 20:21:00,
2013-10-24 13:26:00,78.1,23.2,30.19,West,270,0.0,0.0,13,0.00,,,0.00,meteohub,2013-10-24 20:26:00,
2013-10-24 13:31:00,77.9,23.2,30.18,SE,135,0.0,0.0,13,0.00,,,0.00,meteohub,2013-10-24 20:31:00,
2013-10-24 13:36:00,77.5,22.8,30.18,SSE,158,0.0,0.0,13,0.00,,,0.00,meteohub,2013-10-24 20:36:00,
2013-10-24 13:41:00,77.5,24.6,30.18,WSW,248,0.0,0.0,14,0.00,,,0.00,meteohub,2013-10-24 20:41:00,
2013-10-24 13:46:00,77.4,24.4,30.17,SW,225,0.0,0.0,14,0.00,,,0.00,meteohub,2013-10-24 20:46:00,
2013-10-24 13:51:00,77.2,25.9,30.17,SW,225,0.0,0.0,15,0.00,,,0.00,meteohub,2013-10-24 20:51:00,
2013-10-24 13:56:00,77.0,25.9,30.17,SW,225,0.0,0.0,15,0.00,,,0.00,meteohub,2013-10-24 20:56:00,
2013-10-24 14:01:00,77.0,25.9,30.17,SE,135,0.0,0.0,15,0.00,,,0.00,meteohub,2013-10-24 21:01:00,
2013-10-24 14:06:00,76.8,25.7,30.17,West,270,0.0,0.0,15,0.00,,,0.00,meteohub,2013-10-24 21:06:00,
2013-10-24 14:11:00,77.0,25.9,30.17,South,180,0.0,0.0,15,0.00,,,0.00,meteohub,2013-10-24 21:11:00,
2013-10-24 14:16:00,76.8,27.1,30.17,North,0,0.0,0.0,16,0.00,,,0.00,meteohub,2013-10-24 21:16:00,
2013-10-24 14:22:00,76.8,27.1,30.17,SSE,158,0.0,0.0,16,0.00,,,0.00,meteohub,2013-10-24 21:22:00,
2013-10-24 14:27:00,76.6,27.1,30.17,SW,225,0.0,0.0,16,0.00,,,0.00,meteohub,2013-10-24 21:27:00,
2013-10-24 14:32:00,76.6,27.1,30.17,NE,45,0.0,0.0,16,0.00,,,0.00,meteohub,2013-10-24 21:32:00,
2013-10-24 14:37:00,76.5,27.0,30.16,East,90,0.0,0.0,16,0.00,,,0.00,meteohub,2013-10-24 21:37:00,
2013-10-24 14:42:00,76.5,27.0,30.16,NE,45,0.0,0.0,16,0.00,,,0.00,meteohub,2013-10-24 21:42:00,
2013-10-24 14:47:00,76.5,27.0,30.16,East,90,0.0,0.0,16,0.00,,,0.00,meteohub,2013-10-24 21:47:00,
2013-10-24 14:52:00,76.5,27.0,30.17,East,90,0.0,0.0,16,0.00,,,0.00,meteohub,2013-10-24 21:52:00,
2013-10-24 14:57:00,76.5,28.4,30.16,SE,135,0.0,0.0,17,0.00,,,0.00,meteohub,2013-10-24 21:57:00,
2013-10-24 15:02:00,76.3,28.2,30.16,ESE,113,0.0,0.0,17,0.00,,,0.00,meteohub,2013-10-24 22:02:00,
2013-10-24 15:07:00,76.1,26.6,30.17,SE,135,0.0,0.0,16,0.00,,,0.00,meteohub,2013-10-24 22:07:00,
2013-10-24 15:12:00,75.9,26.4,30.17,SE,135,0.0,0.0,16,0.00,,,0.00,meteohub,2013-10-24 22:12:00,
2013-10-24 15:17:00,75.7,26.4,30.17,NW,315,0.0,0.0,16,0.00,,,0.00,meteohub,2013-10-24 22:17:00,
2013-10-24 15:22:00,75.6,26.2,30.17,SE,135,0.0,0.0,16,0.00,,,0.00,meteohub,2013-10-24 22:22:00,
2013-10-24 15:27:00,75.6,27.7,30.17,SSE,158,0.0,0.0,17,0.00,,,0.00,meteohub,2013-10-24 22:27:00,
2013-10-24 15:32:00,76.1,26.6,30.17,ESE,113,0.0,0.0,16,0.00,,,0.00,meteohub,2013-10-24 22:32:00,
2013-10-24 15:37:00,76.1,28.0,30.17,ESE,113,0.0,0.0,17,0.00,,,0.00,meteohub,2013-10-24 22:37:00,
2013-10-24 15:42:00,76.1,26.6,30.17,SE,135,0.0,0.0,16,0.00,,,0.00,meteohub,2013-10-24 22:42:00,
2013-10-24 15:47:00,76.1,26.6,30.17,East,90,0.0,0.0,16,0.00,,,0.00,meteohub,2013-10-24 22:47:00,
2013-10-24 15:52:00,76.1,26.6,30.17,East,90,0.0,0.0,16,0.00,,,0.00,meteohub,2013-10-24 22:52:00,
2013-10-24 15:57:00,75.7,26.4,30.17,ESE,113,0.0,0.0,16,0.00,,,0.00,meteohub,2013-10-24 22:57:00,
2013-10-24 16:02:00,75.4,26.1,30.17,SE,135,0.0,0.0,16,0.00,,,0.00,meteohub,2013-10-24 23:02:00,
2013-10-24 16:07:00,75.2,25.9,30.17,SE,135,0.0,0.0,16,0.00,,,0.00,meteohub,2013-10-24 23:07:00,
2013-10-24 16:12:00,75.7,26.4,30.17,South,180,0.0,0.0,16,0.00,,,0.00,meteohub,2013-10-24 23:12:00,
2013-10-24 16:17:00,76.1,25.2,30.17,NE,45,0.0,0.0,15,0.00,,,0.00,meteohub,2013-10-24 23:17:00,
2013-10-24 16:22:00,76.3,26.8,30.17,West,270,0.0,0.0,16,0.00,,,0.00,meteohub,2013-10-24 23:22:00,
2013-10-24 16:27:00,76.3,26.8,30.17,SE,135,0.0,0.0,16,0.00,,,0.00,meteohub,2013-10-24 23:27:00,
2013-10-24 16:32:00,76.1,25.2,30.17,South,180,0.0,0.0,15,0.00,,,0.00,meteohub,2013-10-24 23:32:00,
2013-10-24 16:37:00,75.7,26.4,30.17,SE,135,0.0,0.0,16,0.00,,,0.00,meteohub,2013-10-24 23:37:00,
2013-10-24 16:42:00,75.2,25.9,30.17,West,270,0.0,0.0,16,0.00,,,0.00,meteohub,2013-10-24 23:42:00,
2013-10-24 16:47:00,74.7,27.0,30.17,South,180,0.0,0.0,17,0.00,,,0.00,meteohub,2013-10-24 23:47:00,
2013-10-24 16:52:00,74.5,26.8,30.17,West,270,0.0,0.0,17,0.00,,,0.00,meteohub,2013-10-24 23:52:00,
2013-10-24 16:57:00,74.5,26.8,30.17,East,90,0.0,0.0,17,0.00,,,0.00,meteohub,2013-10-24 23:57:00,
2013-10-24 17:02:00,74.3,26.6,30.17,SW,225,0.0,0.0,17,0.00,,,0.00,meteohub,2013-10-25 00:02:00,
2013-10-24 17:07:00,74.3,26.6,30.17,SW,225,0.0,0.0,17,0.00,,,0.00,meteohub,2013-10-25 00:07:00,
2013-10-24 17:12:00,74.5,28.2,30.17,East,90,0.0,0.0,18,0.00,,,0.00,meteohub,2013-10-25 00:12:00,
2013-10-24 17:17:00,74.7,28.4,30.17,SE,135,0.0,0.0,18,0.00,,,0.00,meteohub,2013-10-25 00:17:00,
2013-10-24 17:22:00,75.4,27.5,30.17,South,180,0.0,0.0,17,0.00,,,0.00,meteohub,2013-10-25 00:22:00,
2013-10-24 17:27:00,75.9,29.3,30.17,ESE,113,0.0,0.0,18,0.00,,,0.00,meteohub,2013-10-25 00:27:00,
2013-10-24 17:32:00,75.9,29.3,30.17,SE,135,0.0,0.0,18,0.00,,,0.00,meteohub,2013-10-25 00:32:00,
2013-10-24 17:37:00,76.1,29.5,30.17,ESE,113,0.0,0.0,18,0.00,,,0.00,meteohub,2013-10-25 00:37:00,
2013-10-24 17:42:00,76.1,28.0,30.17,East,90,0.0,0.0,17,0.00,,,0.00,meteohub,2013-10-25 00:42:00,
2013-10-24 17:47:00,76.1,28.0,30.18,NE,45,0.0,0.0,17,0.00,,,0.00,meteohub,2013-10-25 00:47:00,
2013-10-24 17:52:00,75.9,28.0,30.18,ESE,113,0.0,0.0,17,0.00,,,0.00,meteohub,2013-10-25 00:52:00,
2013-10-24 17:57:00,75.9,26.4,30.18,East,90,0.0,0.0,16,0.00,,,0.00,meteohub,2013-10-25 00:57:00,
2013-10-24 18:02:00,75.7,27.9,30.19,SSE,158,0.0,0.0,17,0.00,,,0.00,meteohub,2013-10-25 01:02:00,
2013-10-24 18:07:00,75.7,26.4,30.18,East,90,0.0,0.0,16,0.00,,,0.00,meteohub,2013-10-25 01:07:00,
2013-10-24 18:12:00,75.7,26.4,30.18,SE,135,0.0,0.0,16,0.00,,,0.00,meteohub,2013-10-25 01:12:00,
2013-10-24 18:17:00,75.7,26.4,30.19,SE,135,0.0,0.0,16,0.00,,,0.00,meteohub,2013-10-25 01:17:00,
2013-10-24 18:22:00,75.6,24.6,30.19,SE,135,0.0,0.0,15,0.00,,,0.00,meteohub,2013-10-25 01:22:00,
2013-10-24 18:27:00,75.4,24.4,30.19,NE,45,0.0,0.0,15,0.00,,,0.00,meteohub,2013-10-25 01:27:00,
2013-10-24 18:32:00,75.2,22.6,30.19,North,0,0.0,0.0,14,0.00,,,0.00,meteohub,2013-10-25 01:32:00,
2013-10-24 18:37:00,75.0,24.3,30.19,NE,45,0.0,0.0,15,0.00,,,0.00,meteohub,2013-10-25 01:37:00,
2013-10-24 18:42:00,75.0,24.3,30.20,North,0,0.0,0.0,15,0.00,,,0.00,meteohub,2013-10-25 01:42:00,
2013-10-24 18:47:00,75.0,24.3,30.20,West,270,0.0,0.0,15,0.00,,,0.00,meteohub,2013-10-25 01:47:00,
2013-10-24 18:52:00,74.5,22.1,30.20,South,180,0.0,0.0,14,0.00,,,0.00,meteohub,2013-10-25 01:52:00,
2013-10-24 18:57:00,74.3,22.1,30.20,NW,315,0.0,0.0,14,0.00,,,0.00,meteohub,2013-10-25 01:57:00,
2013-10-24 19:02:00,74.1,21.9,30.20,NW,315,0.0,0.0,14,0.00,,,0.00,meteohub,2013-10-25 02:02:00,
2013-10-24 19:07:00,73.9,21.7,30.21,NW,315,0.0,0.0,14,0.00,,,0.00,meteohub,2013-10-25 02:07:00,
2013-10-24 19:12:00,73.8,21.6,30.21,North,0,0.0,0.0,14,0.00,,,0.00,meteohub,2013-10-25 02:12:00,
2013-10-24 19:17:00,73.6,21.4,30.21,NW,315,0.0,0.0,14,0.00,,,0.00,meteohub,2013-10-25 02:17:00,
2013-10-24 19:22:00,73.4,19.6,30.21,NW,315,0.0,0.0,13,0.00,,,0.00,meteohub,2013-10-25 02:22:00,
2013-10-24 19:27:00,73.2,15.6,30.21,NW,315,0.0,0.0,11,0.00,,,0.00,meteohub,2013-10-25 02:27:00,
2013-10-24 19:32:00,72.5,15.1,30.22,West,270,0.0,0.0,11,0.00,,,0.00,meteohub,2013-10-25 02:32:00,
2013-10-24 19:37:00,72.1,14.7,30.22,North,0,0.0,0.0,11,0.00,,,0.00,meteohub,2013-10-25 02:37:00,
2013-10-24 19:42:00,72.1,14.7,30.22,SW,225,0.0,0.0,11,0.00,,,0.00,meteohub,2013-10-25 02:42:00,
2013-10-24 19:47:00,72.1,14.7,30.22,NW,315,0.0,0.0,11,0.00,,,0.00,meteohub,2013-10-25 02:47:00,
2013-10-24 19:52:00,72.1,14.7,30.22,North,0,0.0,0.0,11,0.00,,,0.00,meteohub,2013-10-25 02:52:00,
2013-10-24 19:57:00,72.3,14.9,30.23,NNW,338,0.0,0.0,11,0.00,,,0.00,meteohub,2013-10-25 02:57:00,
2013-10-24 20:02:00,72.5,15.1,30.23,North,0,0.0,0.0,11,0.00,,,0.00,meteohub,2013-10-25 03:02:00,
2013-10-24 20:07:00,72.3,14.9,30.23,NW,315,0.0,0.0,11,0.00,,,0.00,meteohub,2013-10-25 03:07:00,
2013-10-24 20:12:00,72.1,14.7,30.23,North,0,0.0,0.0,11,0.00,,,0.00,meteohub,2013-10-25 03:12:00,
2013-10-24 20:17:00,72.1,14.7,30.24,NE,45,0.0,0.0,11,0.00,,,0.00,meteohub,2013-10-25 03:17:00,
2013-10-24 20:22:00,72.0,14.5,30.24,NE,45,0.0,0.0,11,0.00,,,0.00,meteohub,2013-10-25 03:22:00,
2013-10-24 20:27:00,71.6,14.4,30.24,West,270,0.0,0.0,11,0.00,,,0.00,meteohub,2013-10-25 03:27:00,
2013-10-24 20:32:00,70.9,17.6,30.24,SW,225,0.0,0.0,13,0.00,,,0.00,meteohub,2013-10-25 03:32:00,
2013-10-24 20:37:00,70.3,17.2,30.24,SW,225,0.0,0.0,13,0.00,,,0.00,meteohub,2013-10-25 03:37:00,
2013-10-24 20:42:00,70.2,17.1,30.24,West,270,0.0,0.0,13,0.00,,,0.00,meteohub,2013-10-25 03:42:00,
2013-10-24 20:47:00,70.5,17.2,30.25,NW,315,0.0,0.0,13,0.00,,,0.00,meteohub,2013-10-25 03:47:00,
2013-10-24 20:53:00,71.2,17.8,30.25,North,0,0.0,0.0,13,0.00,,,0.00,meteohub,2013-10-25 03:53:00,
2013-10-24 20:58:00,71.4,18.0,30.25,NW,315,0.0,0.0,13,0.00,,,0.00,meteohub,2013-10-25 03:58:00,
2013-10-24 21:01:00,71.4,18.0,30.25,West,270,0.0,0.0,13,0.00,,,0.00,meteohub,2013-10-25 04:01:00,
2013-10-24 21:02:00,71.4,18.0,30.25,West,270,0.0,0.0,13,0.00,,,0.00,meteohub,2013-10-25 04:02:00,
2013-10-24 21:03:00,71.2,17.8,30.25,West,270,0.0,0.0,13,0.00,,,0.00,meteohub,2013-10-25 04:03:00,
2013-10-24 21:04:00,71.1,17.8,30.25,West,270,0.0,0.0,13,0.00,,,0.00,meteohub,2013-10-25 04:04:00,
2013-10-24 21:09:00,70.0,16.9,30.25,West,270,0.0,0.0,13,0.00,,,0.00,meteohub,2013-10-25 04:09:00,
2013-10-24 21:14:00,69.4,19.8,30.26,West,270,0.0,0.0,15,0.00,,,0.00,meteohub,2013-10-25 04:14:00,
2013-10-24 21:19:00,69.3,19.6,30.26,SW,225,0.0,0.0,15,0.00,,,0.00,meteohub,2013-10-25 04:19:00,
2013-10-24 21:24:00,70.0,20.1,30.26,WNW,293,0.0,0.0,15,0.00,,,0.00,meteohub,2013-10-25 04:24:00,
2013-10-24 21:29:00,70.3,18.9,30.26,West,270,0.0,0.0,14,0.00,,,0.00,meteohub,2013-10-25 04:29:00,
2013-10-24 21:34:00,70.3,18.9,30.26,SW,225,0.0,0.0,14,0.00,,,0.00,meteohub,2013-10-25 04:34:00,
2013-10-24 21:39:00,69.4,21.2,30.27,NW,315,0.0,0.0,16,0.00,,,0.00,meteohub,2013-10-25 04:39:00,
2013-10-24 21:44:00,69.3,21.2,30.26,West,270,0.0,0.0,16,0.00,,,0.00,meteohub,2013-10-25 04:44:00,
2013-10-24 21:49:00,68.5,20.5,30.27,NW,315,0.0,0.0,16,0.00,,,0.00,meteohub,2013-10-25 04:49:00,
2013-10-24 21:54:00,66.4,18.9,30.27,West,270,0.0,0.0,16,0.00,,,0.00,meteohub,2013-10-25 04:54:00,
2013-10-24 21:59:00,63.0,18.9,30.27,SW,225,0.0,0.0,18,0.00,,,0.00,meteohub,2013-10-25 04:59:00,
2013-10-24 22:04:00,60.3,20.1,30.27,West,270,0.0,0.0,21,0.00,,,0.00,meteohub,2013-10-25 05:04:00,
2013-10-24 22:09:00,58.8,21.0,30.27,WSW,248,0.0,0.0,23,0.00,,,0.00,meteohub,2013-10-25 05:09:00,
2013-10-24 22:14:00,57.6,21.0,30.27,West,270,0.0,0.0,24,0.00,,,0.00,meteohub,2013-10-25 05:14:00,
2013-10-24 22:19:00,57.0,21.6,30.27,West,270,0.0,0.0,25,0.00,,,0.00,meteohub,2013-10-25 05:19:00,
2013-10-24 22:24:00,56.7,22.1,30.27,West,270,0.0,0.0,26,0.00,,,0.00,meteohub,2013-10-25 05:24:00,
2013-10-24 22:29:00,56.5,21.9,30.27,SW,225,0.0,0.0,26,0.00,,,0.00,meteohub,2013-10-25 05:29:00,
2013-10-24 22:34:00,55.9,21.6,30.27,West,270,0.0,0.0,26,0.00,,,0.00,meteohub,2013-10-25 05:34:00,
2013-10-24 22:39:00,55.6,21.2,30.27,NW,315,0.0,0.0,26,0.00,,,0.00,meteohub,2013-10-25 05:39:00,
2013-10-24 22:44:00,55.4,21.0,30.27,West,270,0.0,0.0,26,0.00,,,0.00,meteohub,2013-10-25 05:44:00,
2013-10-24 22:49:00,55.0,18.9,30.27,West,270,0.0,0.0,24,0.00,,,0.00,meteohub,2013-10-25 05:49:00,
2013-10-24 22:54:00,54.3,19.2,30.27,North,0,0.0,0.0,25,0.00,,,0.00,meteohub,2013-10-25 05:54:00,
2013-10-24 22:59:00,54.0,19.8,30.28,West,270,0.0,0.0,26,0.00,,,0.00,meteohub,2013-10-25 05:59:00,
2013-10-24 23:04:00,53.6,19.6,30.28,WNW,293,0.0,0.0,26,0.00,,,0.00,meteohub,2013-10-25 06:04:00,
2013-10-24 23:10:00,53.4,21.2,30.27,NE,45,0.0,0.0,28,0.00,,,0.00,meteohub,2013-10-25 06:10:00,
2013-10-24 23:15:00,53.2,21.7,30.27,NW,315,0.0,0.0,29,0.00,,,0.00,meteohub,2013-10-25 06:15:00,
2013-10-24 23:20:00,53.2,21.7,30.27,NW,315,0.0,0.0,29,0.00,,,0.00,meteohub,2013-10-25 06:20:00,
2013-10-24 23:25:00,52.5,21.2,30.27,North,0,0.0,0.0,29,0.00,,,0.00,meteohub,2013-10-25 06:25:00,
2013-10-24 23:30:00,52.0,21.6,30.27,NE,45,0.0,0.0,30,0.00,,,0.00,meteohub,2013-10-25 06:30:00,
2013-10-24 23:35:00,51.4,21.7,30.27,NW,315,0.0,0.0,31,0.00,,,0.00,meteohub,2013-10-25 06:35:00,
2013-10-24 23:40:00,51.4,21.7,30.27,West,270,0.0,0.0,31,0.00,,,0.00,meteohub,2013-10-25 06:40:00,
2013-10-24 23:45:00,51.3,21.6,30.27,NE,45,0.0,0.0,31,0.00,,,0.00,meteohub,2013-10-25 06:45:00,
2013-10-24 23:50:00,50.9,21.4,30.27,NE,45,0.0,0.0,31,0.00,,,0.00,meteohub,2013-10-25 06:50:00,
2013-10-24 23:55:00,50.7,21.2,30.27,West,270,0.0,0.0,31,0.00,,,0.00,meteohub,2013-10-25 06:55:00,